createdAt,value
2018-12-16T00:02:08.921Z,95137.09
2018-12-16T00:04:39.944Z,95137.73
2018-12-16T00:07:09.890Z,95140.23
2018-12-16T00:09:40.607Z,95126.50
2018-12-16T00:12:10.860Z,95127.46
2018-12-16T00:14:42.063Z,95130.02
2018-12-16T00:17:12.256Z,95120.66
2018-12-16T00:19:42.724Z,95118.03
2018-12-16T00:22:13.348Z,95110.66
2018-12-16T00:24:44.464Z,95105.29
2018-12-16T00:27:15.537Z,95106.89
2018-12-16T00:29:45.828Z,95101.30
2018-12-16T00:32:16.174Z,95092.80
2018-12-16T00:34:47.428Z,95101.76
2018-12-16T00:37:17.627Z,95096.64
2018-12-16T00:39:48.386Z,95094.36
2018-12-16T00:42:18.907Z,95099.27
2018-12-16T00:44:49.547Z,95094.75
2018-12-16T00:47:20.170Z,95093.44
2018-12-16T00:49:50.390Z,95099.79
2018-12-16T00:52:20.675Z,95097.67
2018-12-16T00:54:52.648Z,95102.44
2018-12-16T00:57:23.770Z,95099.05
2018-12-16T00:59:53.707Z,95097.49
2018-12-16T01:02:29.154Z,95097.92
2018-12-16T01:05:00.195Z,95103.89
2018-12-16T01:07:30.750Z,95106.31
2018-12-16T01:10:01.079Z,95113.33
2018-12-16T01:12:31.585Z,95118.89
2018-12-16T01:15:02.892Z,95122.09
2018-12-16T01:17:33.256Z,95112.65
2018-12-16T01:20:03.310Z,95112.58
2018-12-16T01:22:33.878Z,95115.52
2018-12-16T01:25:05.821Z,95110.11
2018-12-16T01:27:36.309Z,95102.34
2018-12-16T01:30:06.960Z,95119.78
2018-12-16T01:32:36.588Z,95118.22
2018-12-16T01:35:08.102Z,95109.50
2018-12-16T01:37:38.955Z,95102.95
2018-12-16T01:40:09.418Z,95104.58
2018-12-16T01:42:39.704Z,95097.52
2018-12-16T01:45:10.939Z,95096.22
2018-12-16T01:47:41.561Z,95101.31
2018-12-16T01:50:12.310Z,95100.91
2018-12-16T01:52:42.907Z,95101.28
2018-12-16T01:55:13.784Z,95094.88
2018-12-16T01:57:44.191Z,95098.44
2018-12-16T02:00:14.994Z,95095.36
2018-12-16T02:02:45.503Z,95092.60
2018-12-16T02:05:16.239Z,95089.78
2018-12-16T02:07:46.925Z,95084.05
2018-12-16T02:10:17.327Z,95078.10
2018-12-16T02:12:47.927Z,95079.23
2018-12-16T02:15:19.383Z,95072.44
2018-12-16T02:17:50.304Z,95068.46
2018-12-16T02:20:21.089Z,95060.53
2018-12-16T02:22:56.755Z,95064.41
2018-12-16T02:25:24.098Z,95064.78
2018-12-16T02:27:54.521Z,95054.31
2018-12-16T02:30:29.182Z,95061.17
2018-12-16T02:32:59.990Z,95064.50
2018-12-16T02:35:30.922Z,95066.64
2018-12-16T02:38:01.446Z,95063.50
2018-12-16T02:40:31.770Z,95051.41
2018-12-16T02:43:02.107Z,95052.33
2018-12-16T02:45:33.260Z,95042.11
2018-12-16T02:48:04.119Z,95045.75
2018-12-16T02:50:34.661Z,95043.53
2018-12-16T02:53:05.194Z,95035.22
2018-12-16T02:55:36.525Z,95033.44
2018-12-16T02:58:07.302Z,95026.81
2018-12-16T03:00:37.976Z,95019.14
2018-12-16T03:03:08.681Z,95017.13
2018-12-16T03:05:39.626Z,95017.33
2018-12-16T03:08:09.823Z,95022.38
2018-12-16T03:10:40.372Z,95021.06
2018-12-16T03:13:10.821Z,95019.54
2018-12-16T03:15:41.436Z,95015.64
2018-12-16T03:18:12.104Z,95025.57
2018-12-16T03:20:43.001Z,95029.67
2018-12-16T03:23:13.490Z,95034.48
2018-12-16T03:25:44.323Z,95035.89
2018-12-16T03:28:14.539Z,95028.97
2018-12-16T03:30:45.103Z,95025.69
2018-12-16T03:33:15.634Z,95032.11
2018-12-16T03:35:45.822Z,95028.45
2018-12-16T03:38:16.277Z,95028.89
2018-12-16T03:40:46.303Z,95031.14
2018-12-16T03:43:16.822Z,95030.34
2018-12-16T03:45:47.405Z,95027.83
2018-12-16T03:48:17.879Z,95031.77
2018-12-16T03:50:48.400Z,95033.48
2018-12-16T03:53:19.924Z,95030.91
2018-12-16T03:55:51.308Z,95031.43
2018-12-16T03:58:21.749Z,95023.63
2018-12-16T04:00:52.270Z,95018.59
2018-12-16T04:03:22.627Z,95025.08
2018-12-16T04:05:54.425Z,95022.63
2018-12-16T04:08:24.689Z,95023.45
2018-12-16T04:10:55.271Z,95012.97
2018-12-16T04:13:25.626Z,95024.80
2018-12-16T04:15:57.400Z,95042.88
2018-12-16T04:18:28.132Z,95036.01
2018-12-16T04:20:58.402Z,95030.83
2018-12-16T04:23:28.776Z,95034.45
2018-12-16T04:26:00.039Z,95041.55
2018-12-16T04:28:30.825Z,95042.78
2018-12-16T04:31:01.177Z,95060.06
2018-12-16T04:33:31.807Z,95056.18
2018-12-16T04:36:02.774Z,95059.19
2018-12-16T04:38:33.268Z,95064.92
2018-12-16T04:41:03.690Z,95063.78
2018-12-16T04:43:34.080Z,95056.70
2018-12-16T04:46:05.367Z,95052.08
2018-12-16T04:48:35.958Z,95051.52
2018-12-16T04:51:07.050Z,95050.87
2018-12-16T04:53:38.195Z,95050.59
2018-12-16T04:56:09.207Z,95055.13
2018-12-16T04:58:39.643Z,95052.47
2018-12-16T05:01:10.183Z,95057.91
2018-12-16T05:03:40.596Z,95063.91
2018-12-16T05:06:11.728Z,95065.67
2018-12-16T05:08:42.358Z,95068.36
2018-12-16T05:11:12.730Z,95073.56
2018-12-16T05:13:43.104Z,95077.52
2018-12-16T05:16:14.489Z,94786.66
2018-12-16T05:18:45.107Z,95071.73
2018-12-16T05:21:15.763Z,95074.06
2018-12-16T05:23:46.368Z,95062.47
2018-12-16T05:26:17.750Z,95064.23
2018-12-16T05:28:47.875Z,95070.80
2018-12-16T05:31:18.473Z,95068.20
2018-12-16T05:33:48.866Z,95072.31
2018-12-16T05:36:19.606Z,95066.14
2018-12-16T05:38:50.047Z,95069.03
2018-12-16T05:41:20.552Z,95065.32
2018-12-16T05:43:51.005Z,95065.16
2018-12-16T05:46:21.527Z,95070.52
2018-12-16T05:48:51.948Z,95060.73
2018-12-16T05:51:22.481Z,95064.58
2018-12-16T05:53:53.037Z,95066.78
2018-12-16T05:56:23.977Z,95071.50
2018-12-16T05:58:54.496Z,95067.62
2018-12-16T06:01:24.956Z,95061.91
2018-12-16T06:03:55.448Z,95068.70
2018-12-16T06:06:25.968Z,95063.93
2018-12-16T06:08:56.395Z,95060.02
2018-12-16T06:11:26.676Z,95063.88
2018-12-16T06:13:57.249Z,95060.84
2018-12-16T06:16:28.541Z,95063.38
2018-12-16T06:18:59.015Z,95065.42
2018-12-16T06:21:29.352Z,95069.42
2018-12-16T06:23:59.872Z,95062.52
2018-12-16T06:26:30.377Z,95066.11
2018-12-16T06:29:00.823Z,95068.37
2018-12-16T06:31:31.272Z,95064.23
2018-12-16T06:34:01.722Z,95071.66
2018-12-16T06:36:33.073Z,95069.50
2018-12-16T06:39:03.391Z,95066.16
2018-12-16T06:41:33.783Z,95060.50
2018-12-16T06:44:04.088Z,95064.41
2018-12-16T06:46:34.767Z,95062.63
2018-12-16T06:49:05.365Z,95060.88
2018-12-16T06:51:35.984Z,95060.42
2018-12-16T06:54:06.101Z,95066.84
2018-12-16T06:56:37.569Z,95063.01
2018-12-16T06:59:08.297Z,95064.64
2018-12-16T07:01:38.952Z,95056.66
2018-12-16T07:04:09.250Z,95063.50
2018-12-16T07:06:40.220Z,95057.48
2018-12-16T07:09:10.467Z,95064.39
2018-12-16T07:11:40.883Z,95066.12
2018-12-16T07:14:11.436Z,95072.05
2018-12-16T07:16:42.705Z,95066.63
2018-12-16T07:19:13.132Z,95064.13
2018-12-16T07:21:44.974Z,95058.64
2018-12-16T07:24:15.593Z,95053.05
2018-12-16T07:26:46.554Z,95059.50
2018-12-16T07:29:17.088Z,95061.09
2018-12-16T07:31:47.432Z,95050.42
2018-12-16T07:34:17.104Z,95054.30
2018-12-16T07:36:47.473Z,95064.24
2018-12-16T07:39:17.403Z,95067.25
2018-12-16T07:41:47.082Z,95055.90
2018-12-16T07:44:16.887Z,95047.91
2018-12-16T07:46:47.033Z,95048.92
2018-12-16T07:49:17.738Z,95050.64
2018-12-16T07:51:48.474Z,95050.64
2018-12-16T07:54:18.908Z,95049.20
2018-12-16T07:56:49.373Z,95044.17
2018-12-16T07:59:19.646Z,95041.00
2018-12-16T08:01:49.274Z,95041.40
2018-12-16T08:04:18.937Z,95050.83
2018-12-16T08:06:49.619Z,95052.59
2018-12-16T08:09:20.013Z,95044.80
2018-12-16T08:11:49.779Z,95049.03
2018-12-16T08:14:19.428Z,95053.77
2018-12-16T08:16:49.562Z,95054.16
2018-12-16T08:19:19.679Z,95053.94
2018-12-16T08:21:50.095Z,95054.81
2018-12-16T08:24:23.143Z,95065.30
2018-12-16T08:26:53.102Z,95059.47
2018-12-16T08:29:23.945Z,95061.30
2018-12-16T08:31:54.635Z,95060.86
2018-12-16T08:34:25.193Z,95053.54
2018-12-16T08:36:55.189Z,95061.89
2018-12-16T08:39:25.672Z,95057.30
2018-12-16T08:41:55.956Z,95052.06
2018-12-16T08:44:26.404Z,95055.39
2018-12-16T08:46:56.679Z,95055.59
2018-12-16T08:50:28.887Z,95052.65
2018-12-16T08:52:58.548Z,95052.49
2018-12-16T08:55:28.963Z,95044.27
2018-12-16T08:57:59.313Z,95050.94
2018-12-16T09:00:30.036Z,95052.33
2018-12-16T09:03:00.562Z,95046.22
2018-12-16T09:05:30.816Z,95044.43
2018-12-16T09:08:00.698Z,95047.20
2018-12-16T09:10:34.054Z,95036.85
2018-12-16T09:13:02.387Z,95036.81
2018-12-16T09:15:32.797Z,95040.76
2018-12-16T09:18:02.557Z,95034.44
2018-12-16T09:20:32.866Z,95023.87
2018-12-16T09:23:03.058Z,95023.47
2018-12-16T09:25:33.920Z,95015.67
2018-12-16T09:28:04.368Z,95021.01
2018-12-16T09:30:34.642Z,95018.16
2018-12-16T09:33:05.060Z,95014.20
2018-12-16T09:35:36.425Z,95007.39
2018-12-16T09:38:06.838Z,95008.20
2018-12-16T09:40:37.223Z,95007.92
2018-12-16T09:43:07.640Z,95008.41
2018-12-16T09:45:38.379Z,95008.64
2018-12-16T09:48:08.586Z,94998.14
2018-12-16T09:50:38.864Z,94995.80
2018-12-16T09:53:09.299Z,94997.52
2018-12-16T09:55:40.705Z,94995.94
2018-12-16T09:58:10.784Z,94986.55
2018-12-16T10:00:41.105Z,94986.08
2018-12-16T10:03:13.913Z,94984.41
2018-12-16T10:06:15.985Z,94973.89
2018-12-16T10:08:46.800Z,94969.80
2018-12-16T10:11:17.168Z,94967.67
2018-12-16T10:13:47.666Z,94971.24
2018-12-16T10:16:18.412Z,94974.36
2018-12-16T10:18:48.829Z,94963.84
2018-12-16T10:21:18.667Z,94957.72
2018-12-16T10:23:49.521Z,94951.36
2018-12-16T10:26:20.214Z,94949.63
2018-12-16T10:28:50.615Z,94938.14
2018-12-16T10:31:21.012Z,94939.19
2018-12-16T10:33:51.910Z,94942.01
2018-12-16T10:36:21.541Z,94939.97
2018-12-16T10:38:51.325Z,94934.04
2018-12-16T10:41:21.129Z,94921.77
2018-12-16T10:43:52.570Z,94920.50
2018-12-16T10:46:23.088Z,94917.13
2018-12-16T10:48:53.409Z,94913.22
2018-12-16T10:51:23.856Z,94911.39
2018-12-16T10:53:54.611Z,94909.84
2018-12-16T10:56:25.084Z,94901.75
2018-12-16T10:58:55.852Z,94909.19
2018-12-16T11:01:28.966Z,94902.36
2018-12-16T11:03:59.945Z,94902.95
2018-12-16T11:06:30.412Z,94896.58
2018-12-16T11:09:01.079Z,94888.91
2018-12-16T11:11:31.653Z,94889.41
2018-12-16T11:14:02.876Z,94881.42
2018-12-16T11:16:33.254Z,94878.60
2018-12-16T11:19:03.651Z,94878.23
2018-12-16T11:21:33.852Z,94875.66
2018-12-16T11:24:04.381Z,94879.64
2018-12-16T11:26:34.927Z,94875.41
2018-12-16T11:29:05.502Z,94874.84
2018-12-16T11:31:35.865Z,94874.95
2018-12-16T11:34:06.983Z,94870.67
2018-12-16T11:36:37.437Z,94865.55
2018-12-16T11:39:08.556Z,94861.36
2018-12-16T11:41:39.648Z,94862.16
2018-12-16T11:44:11.032Z,94846.42
2018-12-16T11:46:41.323Z,94840.08
2018-12-16T11:49:11.470Z,94844.81
2018-12-16T11:51:41.701Z,94846.72
2018-12-16T11:54:12.428Z,94842.97
2018-12-16T11:56:42.837Z,94839.04
2018-12-16T11:59:13.457Z,94835.15
2018-12-16T12:01:43.232Z,94830.17
2018-12-16T12:04:14.294Z,94823.05
2018-12-16T12:06:45.069Z,94817.27
2018-12-16T12:09:15.600Z,94808.33
2018-12-16T12:11:46.117Z,94811.20
2018-12-16T12:14:16.510Z,94818.34
2018-12-16T12:16:47.152Z,94810.16
2018-12-16T12:19:17.808Z,94814.12
2018-12-16T12:21:48.091Z,94809.84
2018-12-16T12:24:19.565Z,94811.91
2018-12-16T12:26:49.707Z,94808.52
2018-12-16T12:29:19.935Z,94804.36
2018-12-16T12:31:50.084Z,94813.31
2018-12-16T12:34:21.143Z,94837.73
2018-12-16T12:36:51.899Z,94822.77
2018-12-16T12:39:23.210Z,94826.22
2018-12-16T12:41:53.318Z,94827.29
2018-12-16T12:44:24.255Z,94827.58
2018-12-16T12:46:54.734Z,94828.10
2018-12-16T12:49:25.480Z,94828.10
2018-12-16T12:51:55.814Z,94828.88
2018-12-16T12:54:26.515Z,94831.26
2018-12-16T12:56:56.890Z,94831.27
2018-12-16T12:59:27.079Z,94829.42
2018-12-16T13:01:57.273Z,94826.52
2018-12-16T13:04:27.570Z,94825.97
2018-12-16T13:06:57.952Z,94834.91
2018-12-16T13:09:29.071Z,94830.74
2018-12-16T13:11:59.601Z,94831.80
2018-12-16T13:14:30.563Z,94829.96
2018-12-16T13:17:00.933Z,94832.34
2018-12-16T13:19:31.602Z,94831.03
2018-12-16T13:22:02.690Z,94836.55
2018-12-16T13:24:33.429Z,94841.31
2018-12-16T13:27:03.874Z,94798.57
2018-12-16T13:29:34.326Z,94851.06
2018-12-16T13:32:05.057Z,94863.21
2018-12-16T13:34:36.060Z,94862.41
2018-12-16T13:37:06.394Z,94878.75
2018-12-16T13:39:37.049Z,94878.47
2018-12-16T13:42:07.348Z,94890.61
2018-12-16T13:44:38.289Z,94892.06
2018-12-16T13:47:08.739Z,94894.13
2018-12-16T13:49:39.189Z,94890.17
2018-12-16T13:52:09.442Z,94893.38
2018-12-16T13:54:39.612Z,94895.81
2018-12-16T13:57:10.025Z,94904.23
2018-12-16T13:59:40.563Z,94907.39
2018-12-16T14:02:10.896Z,94905.48
2018-12-16T14:04:41.472Z,94898.72
2018-12-16T14:07:11.707Z,94910.77
2018-12-16T14:09:42.456Z,94908.45
2018-12-16T14:12:13.048Z,94905.90
2018-12-16T14:14:45.099Z,94916.65
2018-12-16T14:17:15.799Z,94916.11
2018-12-16T14:19:46.317Z,94915.12
2018-12-16T14:22:16.891Z,94914.91
2018-12-16T14:24:48.427Z,94916.58
2018-12-16T14:27:19.024Z,94910.45
2018-12-16T14:29:49.676Z,94914.45
2018-12-16T14:32:20.324Z,94913.06
2018-12-16T14:34:51.170Z,94920.97
2018-12-16T14:37:20.911Z,94926.18
2018-12-16T14:39:50.741Z,94930.63
2018-12-16T14:42:20.445Z,94931.99
2018-12-16T14:44:50.243Z,94935.60
2018-12-16T14:47:19.957Z,94942.23
2018-12-16T14:49:49.616Z,94937.24
2018-12-16T14:52:19.328Z,94944.83
2018-12-16T14:54:49.048Z,94944.72
2018-12-16T14:57:18.827Z,94947.98
2018-12-16T14:59:49.101Z,94948.40
2018-12-16T15:02:19.265Z,94952.14
2018-12-16T15:04:49.807Z,94956.83
2018-12-16T15:07:19.507Z,94963.75
2018-12-16T15:09:49.492Z,94967.25
2018-12-16T15:12:19.378Z,94973.97
2018-12-16T15:14:49.255Z,94979.09
2018-12-16T15:17:19.074Z,94983.46
2018-12-16T15:19:48.815Z,94975.17
2018-12-16T15:22:18.971Z,94975.90
2018-12-16T15:24:49.218Z,94979.73
2018-12-16T15:27:19.856Z,94986.11
2018-12-16T15:29:49.498Z,94982.02
2018-12-16T15:32:19.216Z,94989.38
2018-12-16T15:34:49.837Z,94985.35
2018-12-16T15:37:20.261Z,94999.27
2018-12-16T15:39:50.698Z,95010.36
2018-12-16T15:42:21.043Z,95009.48
2018-12-16T15:44:51.419Z,95017.81
2018-12-16T15:47:20.979Z,95019.02
2018-12-16T15:49:50.816Z,95016.44
2018-12-16T15:52:21.020Z,95013.28
2018-12-16T15:54:51.667Z,95036.97
2018-12-16T15:57:21.989Z,95027.42
2018-12-16T15:59:52.375Z,95027.68
2018-12-16T16:02:23.298Z,95029.23
2018-12-16T16:04:54.337Z,95034.03
2018-12-16T16:07:24.739Z,95036.22
2018-12-16T16:09:54.886Z,95042.97
2018-12-16T16:12:24.550Z,95046.92
2018-12-16T16:14:54.629Z,95046.76
2018-12-16T16:17:24.277Z,95050.22
2018-12-16T16:19:53.983Z,95070.89
2018-12-16T16:22:23.675Z,95061.17
2018-12-16T16:24:53.202Z,95074.17
2018-12-16T16:27:23.097Z,95075.53
2018-12-16T16:29:52.820Z,95074.54
2018-12-16T16:32:22.372Z,95068.58
2018-12-16T16:34:52.141Z,95077.52
2018-12-16T16:37:21.849Z,95081.09
2018-12-16T16:39:51.530Z,95082.60
2018-12-16T16:42:21.184Z,95096.17
2018-12-16T16:44:50.967Z,95100.00
2018-12-16T16:47:20.635Z,95103.33
2018-12-16T16:49:50.465Z,95104.16
2018-12-16T16:52:20.278Z,95105.26
2018-12-16T16:54:50.032Z,95104.09
2018-12-16T16:57:19.714Z,95105.73
2018-12-16T16:59:49.426Z,95110.26
2018-12-16T17:02:19.153Z,94082.04
2018-12-16T17:04:49.109Z,95110.01
2018-12-16T17:07:19.386Z,95113.69
2018-12-16T17:09:50.021Z,95122.13
2018-12-16T17:12:20.721Z,95111.30
2018-12-16T17:14:50.768Z,95102.38
2018-12-16T17:17:20.396Z,95098.44
2018-12-16T17:19:50.350Z,95108.82
2018-12-16T17:22:20.468Z,95112.69
2018-12-16T17:24:50.675Z,95113.34
2018-12-16T17:27:20.831Z,95109.04
2018-12-16T17:29:51.374Z,95113.33
2018-12-16T17:32:21.569Z,95116.52
2018-12-16T17:34:53.135Z,95119.95
2018-12-16T17:37:23.489Z,95112.55
2018-12-16T17:39:53.148Z,95126.78
2018-12-16T17:42:23.401Z,95128.33
2018-12-16T17:44:54.670Z,95129.78
2018-12-16T17:47:25.074Z,95132.02
2018-12-16T17:49:55.807Z,95128.13
2018-12-16T17:52:26.549Z,95120.65
2018-12-16T17:54:57.401Z,95126.23
2018-12-16T17:57:27.107Z,95118.64
2018-12-16T17:59:56.813Z,95118.65
2018-12-16T18:02:27.431Z,95116.36
2018-12-16T18:04:58.064Z,95114.60
2018-12-16T18:07:28.481Z,95125.43
2018-12-16T18:09:59.240Z,95132.20
2018-12-16T18:12:29.501Z,95142.56
2018-12-16T18:15:00.730Z,95141.70
2018-12-16T18:17:30.891Z,95136.29
2018-12-16T18:20:01.175Z,95132.00
2018-12-16T18:22:31.448Z,95136.50
2018-12-16T18:25:02.683Z,95142.47
2018-12-16T18:27:32.347Z,95145.84
2018-12-16T18:30:02.105Z,95141.31
2018-12-16T18:32:31.841Z,95146.02
2018-12-16T18:35:02.562Z,95140.86
2018-12-16T18:37:33.102Z,95148.20
2018-12-16T18:40:02.887Z,95150.91
2018-12-16T18:42:32.719Z,95093.64
2018-12-16T18:45:03.469Z,95140.63
2018-12-16T18:47:33.650Z,95141.58
2018-12-16T18:50:04.317Z,95152.06
2018-12-16T18:52:34.477Z,95150.36
2018-12-16T18:55:05.851Z,95146.20
2018-12-16T18:57:36.542Z,95146.75
2018-12-16T19:00:10.605Z,95153.03
2018-12-16T19:02:40.910Z,95144.17
2018-12-16T19:05:11.461Z,95160.52
2018-12-16T19:07:41.781Z,95150.70
2018-12-16T19:10:12.423Z,95160.08
2018-12-16T19:12:42.353Z,95167.02
2018-12-16T19:15:12.701Z,95176.00
2018-12-16T19:17:42.466Z,95178.52
2018-12-16T19:20:12.264Z,95183.15
2018-12-16T19:22:42.048Z,95190.69
2018-12-16T19:25:11.951Z,95187.98
2018-12-16T19:27:41.690Z,95186.55
2018-12-16T19:30:11.665Z,95184.03
2018-12-16T19:32:41.290Z,95182.20
2018-12-16T19:35:10.987Z,95184.05
2018-12-16T19:37:41.520Z,95176.91
2018-12-16T19:40:12.117Z,95178.55
2018-12-16T19:42:42.824Z,95185.13
2018-12-16T19:45:13.634Z,95182.15
2018-12-16T19:47:49.435Z,95183.66
2018-12-16T19:50:15.135Z,95196.33
2018-12-16T19:52:44.936Z,95188.88
2018-12-16T19:55:15.838Z,95181.98
2018-12-16T19:57:45.591Z,95185.06
2018-12-16T20:00:15.927Z,95194.18
2018-12-16T20:02:46.040Z,95196.58
2018-12-16T20:05:23.770Z,95197.89
2018-12-16T20:07:54.225Z,95200.46
2018-12-16T20:10:24.961Z,95199.25
2018-12-16T20:12:55.831Z,95202.61
2018-12-16T20:15:26.512Z,95210.75
2018-12-16T20:17:56.866Z,95210.58
2018-12-16T20:20:27.430Z,95205.28
2018-12-16T20:22:57.917Z,95202.61
2018-12-16T20:25:28.751Z,95203.97
2018-12-16T20:27:59.103Z,95212.41
2018-12-16T20:30:29.629Z,95207.97
2018-12-16T20:32:59.855Z,95209.23
2018-12-16T20:35:30.531Z,95204.55
2018-12-16T20:38:01.477Z,95201.67
2018-12-16T20:40:32.313Z,95202.45
2018-12-16T20:43:02.904Z,95201.81
2018-12-16T20:45:33.722Z,95196.05
2018-12-16T20:48:03.792Z,95209.61
2018-12-16T20:50:33.940Z,95199.77
2018-12-16T20:53:04.607Z,95208.80
2018-12-16T20:55:35.372Z,95198.53
2018-12-16T20:58:05.787Z,95203.05
2018-12-16T21:00:36.176Z,95212.78
2018-12-16T21:03:06.800Z,95217.95
2018-12-16T21:05:38.329Z,95219.55
2018-12-16T21:08:08.274Z,95197.66
2018-12-16T21:10:38.088Z,95198.63
2018-12-16T21:13:13.448Z,95210.25
2018-12-16T21:15:49.631Z,95209.84
2018-12-16T21:18:25.340Z,95199.56
2018-12-16T21:20:55.622Z,95201.04
2018-12-16T21:23:26.059Z,95204.91
2018-12-16T21:25:57.340Z,95204.80
2018-12-16T21:28:27.746Z,95210.41
2018-12-16T21:30:58.494Z,95206.81
2018-12-16T21:33:27.916Z,95209.91
2018-12-16T21:35:59.140Z,95215.00
2018-12-16T21:38:29.632Z,95207.27
2018-12-16T21:41:00.195Z,95209.00
2018-12-16T21:43:30.828Z,95206.16
2018-12-16T21:46:01.306Z,95207.17
2018-12-16T21:48:31.851Z,95209.98
2018-12-16T21:51:02.535Z,95203.97
2018-12-16T21:53:32.931Z,95201.97
2018-12-16T21:56:03.386Z,95210.23
2018-12-16T21:58:33.980Z,95210.92
2018-12-16T22:01:04.449Z,95199.78
2018-12-16T22:03:35.125Z,95195.03
2018-12-16T22:06:05.986Z,95191.80
2018-12-16T22:08:36.612Z,95193.49
2018-12-16T22:11:06.263Z,95185.91
2018-12-16T22:13:36.307Z,95182.81
2018-12-16T22:16:07.189Z,95172.45
2018-12-16T22:18:37.766Z,95170.16
2018-12-16T22:21:08.143Z,95167.23
2018-12-16T22:23:38.454Z,95170.95
2018-12-16T22:26:10.127Z,95173.48
2018-12-16T22:28:40.511Z,95186.64
2018-12-16T22:31:11.222Z,95180.03
2018-12-16T22:33:40.757Z,95179.62
2018-12-16T22:36:11.465Z,95175.79
2018-12-16T22:38:41.579Z,95178.13
2018-12-16T22:41:12.059Z,95173.02
2018-12-16T22:43:42.592Z,95171.84
2018-12-16T22:46:13.193Z,95177.33
2018-12-16T22:48:43.707Z,95185.75
2018-12-16T22:51:14.334Z,95181.03
2018-12-16T22:53:44.791Z,95170.50
2018-12-16T22:56:15.737Z,95172.66
2018-12-16T22:58:45.496Z,95169.95
2018-12-16T23:01:18.324Z,95169.45
2018-12-16T23:03:48.852Z,95171.28
2018-12-16T23:06:19.578Z,95168.70
2018-12-16T23:08:49.974Z,95177.24
2018-12-16T23:11:20.662Z,95170.97
2018-12-16T23:13:51.482Z,95170.92
2018-12-16T23:16:21.963Z,95184.55
2018-12-16T23:18:52.215Z,95186.09
2018-12-16T23:21:22.751Z,95178.41
2018-12-16T23:23:53.313Z,95186.59
2018-12-16T23:26:24.015Z,95181.69
2018-12-16T23:28:54.340Z,95181.05
2018-12-16T23:31:24.824Z,95170.66
2018-12-16T23:33:55.328Z,95178.55
2018-12-16T23:36:26.144Z,95178.15
2018-12-16T23:38:56.896Z,95180.89
2018-12-16T23:41:27.327Z,95181.19
2018-12-16T23:43:58.040Z,95180.45
2018-12-16T23:46:28.876Z,95181.73
2018-12-16T23:48:59.393Z,95172.53
2018-12-16T23:51:29.963Z,95169.94
2018-12-16T23:54:00.415Z,95175.08
2018-12-16T23:56:31.372Z,95175.16
2018-12-16T23:59:01.806Z,95174.28
